Time;durP1;ratioP1;P1;durP2;ratioP2;P2;SDS_P1;SDS_P2;PMS_P1;PMS_P2;Temp;Humidity;BMP_temperature;BMP_pressure;BME280_temperature;BME280_humidity;BME280_pressure;Samples;Min_cycle;Max_cycle;Signal;HPM_P1;HPM_P2
2022/05/09 00:03:32;;;;;;;1.00;0.90;;;17.70;46.70;19.80;94403.00;;;;10482726;28;45234;-66
2022/05/09 00:08:53;;;;;;;0.70;0.60;;;17.70;46.60;19.80;94393.00;;;;10481491;28;45805;-64
2022/05/09 00:14:13;;;;;;;0.90;0.75;;;17.60;46.50;19.80;94390.00;;;;10481685;28;45301;-64
2022/05/09 00:19:35;;;;;;;0.80;0.80;;;17.60;46.60;19.80;94379.00;;;;10480768;28;45760;-64
2022/05/09 00:25:00;;;;;;;0.77;0.77;;;17.60;46.60;19.70;94393.00;;;;10481420;28;45668;-63
2022/05/09 00:30:21;;;;;;;0.90;0.80;;;17.60;46.70;19.70;94397.00;;;;10481039;28;45296;-63
2022/05/09 00:35:44;;;;;;;0.90;0.80;;;17.60;46.50;19.70;94398.00;;;;10481337;28;45227;-63
2022/05/09 00:46:51;;;;;;;0.82;0.70;;;17.60;46.60;19.70;94399.00;;;;10480254;28;45489;-63
2022/05/09 00:52:19;;;;;;;0.80;0.70;;;17.60;46.60;19.70;94387.00;;;;10481251;28;45281;-63
2022/05/09 00:57:46;;;;;;;0.88;0.85;;;17.60;46.60;19.70;94405.00;;;;10480167;28;45397;-64
2022/05/09 01:03:12;;;;;;;0.60;0.60;;;17.60;46.60;19.70;94406.00;;;;10475768;28;45220;-63
2022/05/09 01:08:34;;;;;;;1.02;0.82;;;17.60;46.60;19.70;94390.00;;;;10480006;28;45964;-63
2022/05/09 01:14:01;;;;;;;1.10;0.73;;;17.60;46.70;19.70;94406.00;;;;10479820;28;45485;-63
2022/05/09 01:19:33;;;;;;;0.85;0.80;;;17.60;46.50;19.70;94401.00;;;;10479936;28;45967;-63
2022/05/09 01:25:00;;;;;;;0.98;0.80;;;17.50;46.60;19.70;94403.00;;;;10480009;28;45291;-63
2022/05/09 01:30:24;;;;;;;0.80;0.77;;;17.60;46.60;19.70;94386.00;;;;10479644;28;45199;-63
2022/05/09 01:35:52;;;;;;;1.30;0.77;;;17.50;46.50;19.70;94408.00;;;;10478242;28;45841;-63
2022/05/09 01:41:14;;;;;;;0.68;0.68;;;17.50;46.60;19.70;94399.00;;;;10479322;28;45154;-63
2022/05/09 01:49:29;;;;;;;0.85;0.75;;;17.50;46.50;19.70;94406.00;;;;10479588;28;45750;-64
2022/05/09 01:52:18;;;;;;;0.90;0.77;;;17.50;46.60;19.60;94409.00;;;;10478951;28;45139;-63
2022/05/09 01:57:40;;;;;;;0.88;0.75;;;17.50;46.50;19.60;94395.00;;;;10478796;28;45116;-63
2022/05/09 02:03:01;;;;;;;0.60;0.60;;;17.50;46.60;19.60;94407.00;;;;10478686;28;45778;-63
2022/05/09 02:08:21;;;;;;;0.80;0.80;;;17.50;46.40;19.60;94398.00;;;;10478692;28;45855;-63
2022/05/09 02:13:44;;;;;;;0.80;0.80;;;17.50;46.50;19.60;94414.00;;;;10479151;28;45774;-63
2022/05/09 02:19:06;;;;;;;0.80;0.80;;;17.50;46.50;19.60;94421.00;;;;10477958;28;45340;-63
2022/05/09 02:24:27;;;;;;;0.95;0.82;;;17.50;46.50;19.60;94417.00;;;;10476776;28;45280;-63
2022/05/09 02:29:49;;;;;;;0.80;0.80;;;17.50;46.60;19.60;94419.00;;;;10477535;28;45173;-63
2022/05/09 02:35:10;;;;;;;0.80;0.77;;;17.50;46.60;19.60;94407.00;;;;10477598;28;46083;-63
2022/05/09 02:40:33;;;;;;;0.60;0.60;;;17.50;46.50;19.60;94401.00;;;;10475948;28;45182;-63
2022/05/09 02:46:01;;;;;;;0.80;0.75;;;17.50;46.60;19.60;94407.00;;;;10477093;28;45215;-63
2022/05/09 02:51:21;;;;;;;0.77;0.77;;;17.50;46.60;19.60;94420.00;;;;10476419;28;45175;-64
2022/05/09 02:56:42;;;;;;;0.63;0.63;;;17.40;46.60;19.60;94423.00;;;;10476175;28;45692;-63
2022/05/09 03:02:04;;;;;;;0.80;0.77;;;17.50;46.40;19.60;94417.00;;;;10476755;28;45226;-63
2022/05/09 03:07:24;;;;;;;1.23;0.90;;;17.50;46.60;19.60;94426.00;;;;10474764;28;45210;-63
2022/05/09 03:12:45;;;;;;;0.80;0.70;;;17.40;46.60;19.60;94422.00;;;;10481882;28;45310;-63
2022/05/09 03:18:08;;;;;;;1.25;0.90;;;17.50;46.50;19.60;94427.00;;;;10483600;28;45581;-63
2022/05/09 03:23:29;;;;;;;0.80;0.75;;;17.50;46.50;19.60;94428.00;;;;10483387;28;45789;-63
2022/05/09 03:28:50;;;;;;;0.98;0.80;;;17.50;46.60;19.50;94418.00;;;;10484137;28;45170;-63
2022/05/09 03:34:11;;;;;;;0.70;0.70;;;17.50;46.50;19.50;94429.00;;;;10481979;28;45679;-63
2022/05/09 03:39:32;;;;;;;1.10;1.00;;;17.40;46.50;19.50;94422.00;;;;10481906;28;45458;-63
2022/05/09 03:44:52;;;;;;;1.10;0.90;;;17.40;46.60;19.50;94432.00;;;;10482905;28;45838;-63
2022/05/09 03:50:15;;;;;;;0.80;0.77;;;17.40;46.60;19.50;94418.00;;;;10482867;28;45109;-63
2022/05/09 03:55:35;;;;;;;1.00;0.90;;;17.40;46.50;19.50;94424.00;;;;10482425;28;45431;-63
2022/05/09 04:00:56;;;;;;;1.00;0.90;;;17.40;46.70;19.50;94442.00;;;;10482504;28;45117;-63
2022/05/09 04:06:19;;;;;;;1.00;0.90;;;17.40;46.60;19.50;94435.00;;;;10481847;28;45220;-63
2022/05/09 04:11:39;;;;;;;0.90;0.80;;;17.40;46.60;19.60;94400.00;;;;10481063;28;45381;-63
2022/05/09 04:17:00;;;;;;;1.13;1.00;;;17.50;46.60;19.60;94436.00;;;;10481957;28;45199;-63
2022/05/09 04:22:22;;;;;;;1.13;1.02;;;17.50;46.40;19.70;94437.00;;;;10480419;28;45187;-63
2022/05/09 04:27:43;;;;;;;1.00;0.90;;;17.60;46.50;19.70;94441.00;;;;10482776;28;45396;-62
2022/05/09 04:33:06;;;;;;;1.35;1.13;;;17.60;46.30;19.80;94442.00;;;;10482698;28;45263;-63
2022/05/09 04:38:28;;;;;;;1.58;0.90;;;17.60;46.30;19.80;94454.00;;;;10482373;28;45424;-63
2022/05/09 04:43:49;;;;;;;1.02;0.90;;;17.70;46.20;19.80;94458.00;;;;10481232;28;45171;-63
2022/05/09 04:49:10;;;;;;;2.20;1.35;;;17.70;46.30;19.80;94453.00;;;;10479717;28;45182;-63
2022/05/09 04:54:32;;;;;;;1.40;1.30;;;17.70;46.30;19.90;94467.00;;;;10481824;28;45386;-63
2022/05/09 04:59:52;;;;;;;1.10;0.98;;;17.70;46.20;19.90;94447.00;;;;10480678;28;45792;-63
2022/05/09 05:05:13;;;;;;;1.63;1.30;;;17.80;46.30;19.90;94466.00;;;;10480278;28;45692;-63
2022/05/09 05:10:36;;;;;;;1.25;1.10;;;17.80;46.40;19.90;94457.00;;;;10480416;28;45243;-64
2022/05/09 05:15:57;;;;;;;1.15;1.05;;;17.80;46.20;19.90;94462.00;;;;10481579;28;46011;-63
2022/05/09 05:21:18;;;;;;;1.10;1.00;;;17.80;46.20;19.90;94473.00;;;;10481615;28;45422;-63
2022/05/09 05:26:40;;;;;;;1.65;1.27;;;17.80;46.30;19.90;94478.00;;;;10481509;28;45216;-63
2022/05/09 05:32:02;;;;;;;1.40;1.20;;;17.80;46.30;19.90;94477.00;;;;10450062;28;45136;-63
2022/05/09 05:37:22;;;;;;;2.30;1.20;;;17.90;46.30;19.90;94477.00;;;;10439068;28;45300;-63
2022/05/09 05:42:47;;;;;;;1.52;1.20;;;17.80;46.20;19.90;94483.00;;;;10463335;28;45219;-63
2022/05/09 05:48:09;;;;;;;1.73;1.27;;;17.90;46.30;19.90;94487.00;;;;10480437;28;45097;-63
2022/05/09 05:53:30;;;;;;;1.42;1.15;;;17.90;46.30;19.90;94487.00;;;;10478571;28;45163;-63
2022/05/09 05:58:51;;;;;;;1.38;1.05;;;17.80;46.40;19.90;94492.00;;;;10396949;28;45694;-62
2022/05/09 06:04:12;;;;;;;1.40;1.30;;;17.90;46.50;20.00;94497.00;;;;10397152;28;45799;-63
2022/05/09 06:09:33;;;;;;;1.27;1.15;;;17.90;46.30;20.00;94496.00;;;;10396309;28;45689;-63
2022/05/09 06:20:37;;;;;;;1.77;1.10;;;17.90;46.50;20.00;94504.00;;;;10396293;28;45657;-62
2022/05/09 06:25:58;;;;;;;1.77;1.30;;;17.90;46.30;20.00;94509.00;;;;10396287;28;45156;-63
2022/05/09 06:31:21;;;;;;;1.40;1.25;;;17.90;46.50;20.00;94507.00;;;;10395928;28;46308;-62
2022/05/09 06:36:43;;;;;;;1.20;1.10;;;17.90;46.60;20.00;94517.00;;;;10395971;28;45116;-63
2022/05/09 06:42:05;;;;;;;1.85;1.40;;;17.90;46.70;20.00;94519.00;;;;10395099;28;45323;-62
2022/05/09 06:47:27;;;;;;;1.50;1.25;;;17.90;46.60;20.00;94516.00;;;;10395202;28;45201;-62
2022/05/09 06:52:48;;;;;;;1.35;1.13;;;17.90;46.60;20.00;94520.00;;;;10395258;28;45150;-63
2022/05/09 06:58:10;;;;;;;1.88;1.27;;;17.90;46.60;20.00;94515.00;;;;10394779;28;45156;-63
2022/05/09 07:03:33;;;;;;;1.77;1.35;;;17.90;46.60;20.00;94519.00;;;;10411934;28;45210;-62
2022/05/09 07:08:53;;;;;;;2.17;1.40;;;17.90;46.60;20.10;94518.00;;;;10435424;28;45933;-62
2022/05/09 07:14:14;;;;;;;1.38;1.20;;;18.00;46.70;20.00;94518.00;;;;10435655;28;45490;-62
2022/05/09 07:19:35;;;;;;;1.95;1.40;;;18.00;46.70;20.00;94518.00;;;;10435131;28;45176;-63
2022/05/09 07:24:56;;;;;;;1.52;1.25;;;17.90;46.60;20.10;94516.00;;;;10435771;28;45191;-63
2022/05/09 07:30:19;;;;;;;1.60;1.40;;;18.00;46.70;20.10;94530.00;;;;10435058;28;45235;-63
2022/05/09 07:35:41;;;;;;;1.20;1.10;;;18.00;46.80;20.10;94535.00;;;;10434797;28;45887;-63
2022/05/09 07:41:02;;;;;;;1.67;1.40;;;18.00;46.50;20.10;94519.00;;;;10434854;28;45656;-62
2022/05/09 07:46:23;;;;;;;1.30;1.20;;;18.00;46.60;20.10;94535.00;;;;10434822;28;45697;-63
2022/05/09 07:51:45;;;;;;;1.10;0.90;;;18.00;46.50;20.10;94524.00;;;;10434561;28;45769;-63
2022/05/09 07:57:06;;;;;;;2.25;1.40;;;17.90;46.70;20.10;94508.00;;;;10436255;28;45678;-62
2022/05/09 08:02:27;;;;;;;2.00;1.25;;;18.00;46.70;20.10;94526.00;;;;10442564;28;45364;-65
2022/05/09 08:07:49;;;;;;;1.80;1.25;;;18.00;46.60;20.10;94529.00;;;;10441438;28;45271;-63
2022/05/09 08:13:12;;;;;;;2.28;1.30;;;18.00;46.70;20.10;94534.00;;;;10441353;28;46003;-62
2022/05/09 08:18:33;;;;;;;1.63;1.30;;;18.00;46.60;20.10;94539.00;;;;10441820;28;45295;-63
2022/05/09 08:23:55;;;;;;;1.52;1.20;;;18.00;46.60;20.10;94536.00;;;;10441384;28;45155;-62
2022/05/09 08:29:16;;;;;;;2.70;1.10;;;18.00;46.50;20.10;94531.00;;;;10440733;28;45724;-62
2022/05/09 08:34:36;;;;;;;1.52;1.23;;;18.00;46.60;20.10;94529.00;;;;10441351;28;45759;-64
2022/05/09 08:39:59;;;;;;;2.15;1.50;;;18.00;46.50;20.10;94538.00;;;;10440615;28;45433;-63
2022/05/09 08:45:27;;;;;;;1.75;1.20;;;18.00;46.60;20.10;94535.00;;;;10440851;28;45775;-62
2022/05/09 08:51:05;;;;;;;1.75;1.25;;;18.00;46.50;20.10;94529.00;;;;10440440;28;45158;-63
2022/05/09 08:56:28;;;;;;;1.35;1.20;;;18.00;47.30;20.10;94528.00;;;;10438889;28;45313;-62
2022/05/09 09:01:56;;;;;;;1.95;1.30;;;18.00;46.50;20.10;94535.00;;;;10439845;28;45187;-63
2022/05/09 09:07:49;;;;;;;1.77;1.30;;;18.00;46.60;20.10;94532.00;;;;10439293;28;45171;-63
2022/05/09 09:13:33;;;;;;;2.55;1.63;;;18.00;46.60;20.10;94524.00;;;;10440044;28;45184;-63
2022/05/09 09:19:21;;;;;;;1.50;1.17;;;18.00;46.50;20.10;94523.00;;;;10439726;28;45181;-63
2022/05/09 09:24:54;;;;;;;;;;;18.00;46.50;20.20;94529.00;;;;10440176;28;45179;-62
2022/05/09 09:30:19;;;;;;;1.45;1.25;;;18.10;46.50;20.20;94541.00;;;;10439144;28;45171;-62
2022/05/09 09:35:51;;;;;;;1.55;1.13;;;18.00;46.50;20.20;94549.00;;;;10439419;28;45147;-63
2022/05/09 09:41:23;;;;;;;1.70;1.10;;;18.00;46.50;20.10;94534.00;;;;10438930;28;45182;-62
2022/05/09 09:47:11;;;;;;;2.47;1.30;;;18.00;46.50;20.10;94525.00;;;;10438438;28;45182;-62
2022/05/09 09:52:43;;;;;;;1.50;1.30;;;18.00;46.50;20.10;94545.00;;;;10396810;28;45180;-62
2022/05/09 09:58:21;;;;;;;1.60;1.20;;;18.00;46.50;20.20;94529.00;;;;10396798;28;45124;-63
2022/05/09 10:03:48;;;;;;;1.17;0.95;;;18.00;46.50;20.20;94534.00;;;;10396572;28;45231;-63
2022/05/09 10:09:08;;;;;;;2.20;1.40;;;18.00;46.50;20.20;94545.00;;;;10396382;28;45218;-63
2022/05/09 10:14:34;;;;;;;2.10;1.40;;;18.00;46.50;20.10;94536.00;;;;10441169;28;45307;-62
2022/05/09 10:19:58;;;;;;;1.37;1.13;;;18.00;46.50;20.20;94535.00;;;;10478353;28;45222;-63
2022/05/09 10:25:23;;;;;;;2.38;1.30;;;18.00;46.60;20.10;94532.00;;;;10479706;28;45444;-62
2022/05/09 10:30:47;;;;;;;1.70;1.40;;;18.00;46.60;20.20;94536.00;;;;10469459;28;45328;-62
2022/05/09 10:36:18;;;;;;;1.98;1.38;;;18.00;46.70;20.20;94536.00;;;;10436922;28;45296;-63
2022/05/09 10:41:43;;;;;;;1.67;1.35;;;18.00;46.60;20.20;94530.00;;;;10425837;28;45382;-62
2022/05/09 10:47:10;;;;;;;1.40;1.30;;;18.00;46.50;20.20;94524.00;;;;10436865;28;45712;-62
2022/05/09 10:52:41;;;;;;;2.17;1.48;;;18.00;46.60;20.20;94527.00;;;;10436883;28;45930;-62
2022/05/09 10:58:07;;;;;;;1.75;1.40;;;18.00;46.50;20.10;94515.00;;;;10436808;28;45871;-62
2022/05/09 11:03:34;;;;;;;2.08;1.40;;;18.00;46.60;20.10;94508.00;;;;10436923;28;46147;-62
2022/05/09 11:09:25;;;;;;;1.40;1.30;;;18.00;46.50;20.10;94515.00;;;;10436366;28;45506;-62
2022/05/09 11:15:01;;;;;;;2.30;1.30;;;18.00;46.60;20.10;94512.00;;;;10436881;28;45394;-62
2022/05/09 11:20:32;;;;;;;1.57;1.23;;;18.00;46.50;20.10;94510.00;;;;10436137;28;45879;-63
2022/05/09 11:26:06;;;;;;;1.80;1.40;;;18.00;46.50;20.10;94515.00;;;;10435820;28;45207;-62
2022/05/09 11:31:33;;;;;;;2.20;1.27;;;18.00;46.50;20.10;94513.00;;;;10437427;28;45227;-62
2022/05/09 11:37:04;;;;;;;;;;;18.00;46.40;20.10;94517.00;;;;10442966;28;45421;-62
2022/05/09 11:48:29;;;;;;;1.63;1.50;;;18.00;46.30;20.10;94511.00;;;;10442007;28;45245;-63
2022/05/09 11:53:58;;;;;;;2.50;1.90;;;18.00;46.30;20.00;94501.00;;;;10446181;28;45720;-59
2022/05/09 11:59:25;;;;;;;2.42;1.77;;;18.00;47.30;20.00;94508.00;;;;10440216;28;45871;-60
2022/05/09 12:04:47;;;;;;;;;;;17.90;47.20;20.00;94504.00;;;;10442295;28;45855;-60
2022/05/09 12:10:20;;;;;;;2.63;1.70;;;17.90;47.20;19.90;94501.00;;;;10440998;28;45730;-60
2022/05/09 12:15:50;;;;;;;2.75;1.58;;;17.90;47.20;19.90;94497.00;;;;10440425;28;45851;-60
2022/05/09 12:21:17;;;;;;;2.30;1.80;;;17.90;47.70;19.90;94502.00;;;;10440949;28;45747;-60
2022/05/09 12:26:42;;;;;;;2.42;1.80;;;17.80;47.00;19.90;94487.00;;;;10440601;28;45187;-60
2022/05/09 12:32:05;;;;;;;2.22;1.83;;;17.90;46.90;19.90;94481.00;;;;10440379;28;45895;-59
2022/05/09 12:37:26;;;;;;;2.47;1.77;;;17.90;46.90;19.90;94483.00;;;;10440366;28;45705;-61
2022/05/09 12:42:50;;;;;;;2.10;1.73;;;17.80;46.90;19.90;94490.00;;;;10439831;28;45672;-60
2022/05/09 12:48:14;;;;;;;2.60;1.63;;;17.80;46.80;19.90;94491.00;;;;10439990;28;45882;-62
2022/05/09 12:53:36;;;;;;;2.10;1.63;;;17.80;46.90;19.90;94476.00;;;;10439862;28;45688;-60
2022/05/09 12:59:03;;;;;;;2.88;1.92;;;17.80;46.90;19.90;94471.00;;;;10439299;28;45752;-60
2022/05/09 13:04:29;;;;;;;2.35;1.77;;;17.80;46.90;19.90;94463.00;;;;10438753;28;45126;-59
2022/05/09 13:09:52;;;;;;;2.20;1.73;;;17.80;46.90;19.90;94462.00;;;;10438623;28;45197;-60
2022/05/09 13:15:17;;;;;;;2.08;1.70;;;17.80;46.90;19.90;94461.00;;;;10438752;28;45918;-59
2022/05/09 13:20:49;;;;;;;2.42;1.80;;;17.80;46.90;19.90;94463.00;;;;10439021;28;45300;-60
2022/05/09 13:26:18;;;;;;;2.70;2.03;;;17.80;46.90;19.90;94466.00;;;;10438371;28;45914;-60
2022/05/09 13:31:44;;;;;;;2.47;1.85;;;17.80;46.90;19.90;94445.00;;;;10437941;28;45804;-59
2022/05/09 13:37:12;;;;;;;2.20;1.80;;;17.80;46.90;19.90;94428.00;;;;10437704;28;45173;-59
2022/05/09 13:42:37;;;;;;;2.45;1.77;;;17.80;46.90;19.90;94437.00;;;;10437285;28;45210;-59
2022/05/09 13:48:00;;;;;;;2.33;1.73;;;17.80;46.90;19.90;94428.00;;;;10436533;28;45221;-60
2022/05/09 13:53:27;;;;;;;1.88;1.65;;;17.80;46.80;19.90;94428.00;;;;10437512;28;45763;-60
2022/05/09 13:58:48;;;;;;;2.55;1.83;;;17.80;46.80;19.90;94433.00;;;;10437527;28;45669;-60
2022/05/09 14:04:12;;;;;;;2.03;1.48;;;17.80;46.30;19.90;94422.00;;;;10437874;28;45459;-60
2022/05/09 14:09:34;;;;;;;2.20;1.70;;;17.80;46.30;19.90;94400.00;;;;10437323;28;45256;-60
2022/05/09 14:15:05;;;;;;;2.22;1.63;;;17.90;46.40;19.90;94408.00;;;;10437123;28;45458;-60
2022/05/09 14:20:33;;;;;;;2.25;1.83;;;17.90;46.50;20.00;94412.00;;;;10436456;28;45436;-59
2022/05/09 14:31:53;;;;;;;3.15;1.88;;;17.90;46.70;20.00;94413.00;;;;10435702;28;45238;-60
2022/05/09 14:37:26;;;;;;;2.00;1.80;;;17.90;46.60;20.00;94409.00;;;;10435964;28;45108;-59
2022/05/09 14:43:00;;;;;;;2.42;1.85;;;17.90;46.60;20.00;94401.00;;;;10435916;28;45731;-59
2022/05/09 14:48:25;;;;;;;2.75;1.80;;;18.00;46.60;20.00;94394.00;;;;10435702;28;45184;-60
2022/05/09 14:53:51;;;;;;;2.88;1.80;;;18.00;46.70;20.00;94395.00;;;;10435663;28;45176;-60
2022/05/09 14:59:19;;;;;;;3.63;1.80;;;18.00;46.70;20.00;94390.00;;;;10435330;28;45243;-60
2022/05/09 15:04:40;;;;;;;;;;;18.00;46.60;20.00;94381.00;;;;10435275;28;45851;-60
2022/05/09 15:10:01;;;;;;;3.50;1.52;;;17.90;46.70;20.20;94397.00;;;;10433987;28;45730;-59
2022/05/09 15:15:23;;;;;;;2.30;1.58;;;18.10;46.80;20.10;94377.00;;;;10434843;28;45160;-59
2022/05/09 15:20:44;;;;;;;2.58;1.70;;;18.10;46.70;20.10;94382.00;;;;10434115;28;45285;-60
2022/05/09 15:26:05;;;;;;;2.42;1.70;;;18.00;46.50;20.10;94374.00;;;;10434508;28;45235;-60
2022/05/09 15:31:28;;;;;;;2.42;1.77;;;18.00;46.60;20.10;94370.00;;;;10434729;28;45148;-60
2022/05/09 15:36:49;;;;;;;2.20;1.67;;;18.00;46.60;20.10;94384.00;;;;10435109;28;45176;-60
2022/05/09 15:42:18;;;;;;;2.55;1.70;;;18.00;46.70;20.10;94381.00;;;;10434313;28;45129;-60
2022/05/09 15:47:42;;;;;;;2.20;1.63;;;18.00;46.80;20.10;94382.00;;;;10434984;28;45219;-60
2022/05/09 15:53:03;;;;;;;1.85;1.50;;;18.00;46.80;20.10;94381.00;;;;10434888;28;45845;-60
2022/05/09 15:58:27;;;;;;;2.10;1.63;;;18.10;46.80;20.10;94382.00;;;;10434429;28;45057;-60
2022/05/09 16:03:49;;;;;;;2.63;1.73;;;18.00;46.80;20.10;94372.00;;;;10403967;28;45438;-60
2022/05/09 16:14:51;;;;;;;2.17;1.52;;;18.00;46.80;20.10;94373.00;;;;10408723;28;45564;-60
2022/05/09 16:20:17;;;;;;;2.10;1.63;;;18.00;46.80;20.10;94388.00;;;;10439187;28;45887;-60
2022/05/09 16:25:38;;;;;;;2.20;1.38;;;18.00;46.80;20.10;94378.00;;;;10409424;28;45889;-61
2022/05/09 16:30:59;;;;;;;2.50;1.70;;;18.00;46.70;20.10;94373.00;;;;10441064;28;45824;-60
2022/05/09 16:36:21;;;;;;;2.05;1.52;;;18.00;46.60;20.10;94388.00;;;;10440293;28;45359;-60
2022/05/09 16:41:42;;;;;;;1.95;1.50;;;18.00;46.50;20.10;94382.00;;;;10435647;28;45951;-61
2022/05/09 16:47:03;;;;;;;2.17;1.50;;;18.00;46.60;20.00;94391.00;;;;10438048;28;45273;-60
2022/05/09 16:52:25;;;;;;;1.98;1.70;;;18.00;46.70;20.00;94388.00;;;;10438646;28;45166;-60
2022/05/09 16:57:47;;;;;;;1.98;1.70;;;18.00;46.70;20.00;94388.00;;;;10433754;28;45235;-60
2022/05/09 17:03:09;;;;;;;1.92;1.55;;;17.90;46.70;20.00;94399.00;;;;10435012;28;45697;-60
2022/05/09 17:08:31;;;;;;;1.92;1.48;;;17.90;46.80;20.00;94397.00;;;;10439000;28;45213;-60
2022/05/09 17:13:52;;;;;;;2.72;1.70;;;17.90;46.80;19.90;94408.00;;;;10438390;28;45180;-60
2022/05/09 17:19:12;;;;;;;1.85;1.58;;;17.90;46.90;19.90;94390.00;;;;10434782;28;45706;-60
2022/05/09 17:24:34;;;;;;;1.70;1.30;;;17.90;46.90;19.90;94397.00;;;;10417900;28;45840;-60
2022/05/09 17:29:55;;;;;;;1.95;1.48;;;17.80;46.80;19.90;94416.00;;;;10423622;28;45351;-60
2022/05/09 17:41:01;;;;;;;1.85;1.60;;;17.80;46.90;19.90;94407.00;;;;10421068;28;45287;-63
2022/05/09 17:46:26;;;;;;;;;;;17.80;47.10;20.00;94412.00;;;;10436387;28;45764;-61
2022/05/09 17:51:47;;;;;;;2.97;1.60;;;17.90;47.10;20.00;94411.00;;;;10433096;28;45292;-60
2022/05/09 17:57:15;;;;;;;2.08;1.48;;;17.90;46.90;19.90;94420.00;;;;10424005;28;45893;-61
2022/05/09 18:02:37;;;;;;;2.17;1.50;;;17.90;46.90;19.90;94427.00;;;;10436157;28;45240;-61
2022/05/09 18:07:57;;;;;;;1.63;1.42;;;17.80;46.80;19.90;94423.00;;;;10436400;28;45116;-60
2022/05/09 18:13:22;;;;;;;3.58;1.42;;;17.80;46.70;19.90;94422.00;;;;10436428;28;45211;-61
2022/05/09 18:18:47;;;;;;;1.40;1.30;;;17.80;46.60;19.90;94421.00;;;;10434483;28;45459;-60
2022/05/09 18:24:13;;;;;;;1.77;1.30;;;17.80;46.60;19.90;94433.00;;;;10437119;28;45331;-60
2022/05/09 18:29:36;;;;;;;1.70;1.50;;;17.80;46.70;19.90;94423.00;;;;10435839;28;45188;-60
2022/05/09 18:35:00;;;;;;;2.58;1.35;;;17.80;46.60;19.80;94437.00;;;;10435910;28;45222;-60
2022/05/09 18:40:22;;;;;;;2.25;1.60;;;17.80;46.60;19.80;94424.00;;;;10434452;28;45205;-60
2022/05/09 18:45:44;;;;;;;2.10;1.23;;;17.70;46.70;19.80;94433.00;;;;10435795;28;45469;-60
2022/05/09 18:57:01;;;;;;;2.50;1.50;;;17.70;46.60;19.80;94446.00;;;;10409800;28;45884;-60
2022/05/09 19:02:23;;;;;;;1.63;1.35;;;17.70;46.50;19.80;94450.00;;;;10434838;28;45109;-61
2022/05/09 19:07:48;;;;;;;1.52;1.35;;;17.70;46.60;19.80;94447.00;;;;10435148;28;45350;-60
2022/05/09 19:13:10;;;;;;;1.85;1.25;;;17.70;46.60;19.80;94453.00;;;;10434804;28;45303;-60
2022/05/09 19:18:33;;;;;;;1.63;1.40;;;17.70;46.50;19.80;94453.00;;;;10434588;28;45218;-60
2022/05/09 19:23:55;;;;;;;1.50;1.30;;;17.70;46.60;19.70;94450.00;;;;10434282;28;45262;-61
2022/05/09 19:29:25;;;;;;;2.35;1.40;;;17.70;46.60;19.70;94457.00;;;;10433544;28;45255;-60
2022/05/09 19:34:47;;;;;;;1.63;1.38;;;17.70;46.50;19.70;94469.00;;;;10434098;28;45414;-60
2022/05/09 19:40:09;;;;;;;1.30;1.20;;;17.60;46.50;19.70;94472.00;;;;10433494;28;45718;-60
2022/05/09 19:45:36;;;;;;;1.50;1.30;;;17.60;46.50;19.70;94477.00;;;;10434165;28;45294;-60
2022/05/09 19:51:01;;;;;;;2.57;1.40;;;17.60;46.50;19.70;94477.00;;;;10433997;28;45172;-60
2022/05/09 19:56:22;;;;;;;1.50;1.40;;;17.60;46.50;19.70;94464.00;;;;10440759;28;45186;-60
2022/05/09 20:01:42;;;;;;;1.60;1.30;;;17.60;46.50;19.70;94478.00;;;;10440807;28;45270;-61
2022/05/09 20:07:04;;;;;;;1.52;1.20;;;17.60;46.50;19.70;94492.00;;;;10437556;28;45216;-60
2022/05/09 20:12:31;;;;;;;1.55;1.30;;;17.60;46.40;19.70;94478.00;;;;10437718;28;45220;-61
2022/05/09 20:17:53;;;;;;;1.67;1.10;;;17.60;47.10;19.70;94489.00;;;;10440815;28;45170;-60
2022/05/09 20:23:16;;;;;;;1.52;1.20;;;17.60;46.40;19.60;94493.00;;;;10440399;28;45751;-60
2022/05/09 20:34:15;;;;;;;1.90;1.30;;;17.60;46.50;19.60;94501.00;;;;10439945;28;45249;-60
2022/05/09 20:39:36;;;;;;;1.10;1.00;;;17.60;46.40;19.60;94497.00;;;;10439482;28;45554;-60
2022/05/09 20:44:57;;;;;;;1.75;1.30;;;17.60;46.30;19.70;94500.00;;;;10439735;28;45109;-60
2022/05/09 20:50:18;;;;;;;1.40;1.10;;;17.60;46.40;19.60;94492.00;;;;10439038;28;45207;-61
2022/05/09 20:55:40;;;;;;;1.40;1.10;;;17.60;46.40;19.60;94490.00;;;;10438991;28;45111;-60
2022/05/09 21:01:00;;;;;;;1.40;1.10;;;17.60;46.40;19.60;94480.00;;;;10439065;28;45188;-60
2022/05/09 21:06:21;;;;;;;1.92;1.35;;;17.60;46.50;19.60;94488.00;;;;10438496;28;45178;-60
2022/05/09 21:11:43;;;;;;;1.25;1.08;;;17.50;46.40;19.60;94483.00;;;;10438955;28;45212;-60
2022/05/09 21:17:04;;;;;;;1.42;1.08;;;17.50;46.40;19.60;94480.00;;;;10438627;28;45251;-60
2022/05/09 21:22:29;;;;;;;1.20;1.10;;;17.50;46.30;19.60;94485.00;;;;10438482;28;45419;-60
2022/05/09 21:27:56;;;;;;;1.50;1.10;;;17.50;46.40;19.60;94480.00;;;;10438090;28;45204;-60
2022/05/09 21:33:18;;;;;;;1.65;1.30;;;17.50;46.40;19.60;94463.00;;;;10438150;28;45752;-60
2022/05/09 21:44:23;;;;;;;1.80;1.30;;;17.50;46.40;19.50;94465.00;;;;10438172;28;45113;-60
2022/05/09 21:49:44;;;;;;;1.48;1.08;;;17.50;46.40;19.50;94478.00;;;;10437280;28;45259;-60
2022/05/09 21:55:06;;;;;;;1.30;1.20;;;17.50;46.40;19.50;94469.00;;;;10438029;28;45124;-60
2022/05/09 22:01:09;;;;;;;1.45;1.20;;;17.50;46.40;19.50;94464.00;;;;10436892;28;45888;-60
2022/05/09 22:06:31;;;;;;;1.25;0.98;;;17.50;46.40;19.50;94466.00;;;;10436639;28;45208;-60
2022/05/09 22:11:54;;;;;;;1.30;1.10;;;17.40;46.30;19.50;94455.00;;;;10436899;28;45600;-60
2022/05/09 22:17:17;;;;;;;1.40;1.25;;;17.50;46.30;19.50;94458.00;;;;10436211;28;45194;-60
2022/05/09 22:22:37;;;;;;;1.52;1.20;;;17.40;46.30;19.50;94453.00;;;;10436033;28;45795;-60
2022/05/09 22:27:58;;;;;;;1.30;1.20;;;17.40;46.20;19.50;94437.00;;;;10436486;28;45203;-60
2022/05/09 22:33:20;;;;;;;1.20;1.10;;;17.40;46.20;19.50;94452.00;;;;10436050;28;45192;-60
2022/05/09 22:38:41;;;;;;;1.13;1.02;;;17.40;46.30;19.50;94449.00;;;;10435934;28;45149;-60
2022/05/09 22:44:02;;;;;;;1.20;0.95;;;17.40;46.30;19.40;94457.00;;;;10435467;28;45284;-60
2022/05/09 22:49:29;;;;;;;1.25;1.02;;;17.40;46.20;19.50;94444.00;;;;10435946;28;45253;-60
2022/05/09 22:54:49;;;;;;;1.38;1.17;;;17.40;46.20;19.50;94442.00;;;;10436161;28;45346;-61
2022/05/09 23:00:14;;;;;;;1.20;1.10;;;17.40;46.20;19.50;94440.00;;;;10435116;28;45216;-60
2022/05/09 23:05:38;;;;;;;1.35;1.20;;;17.40;46.20;19.50;94456.00;;;;10435097;28;45212;-60
2022/05/09 23:11:00;;;;;;;1.40;1.17;;;17.40;46.20;19.40;94448.00;;;;10431649;28;45336;-61
2022/05/09 23:16:21;;;;;;;1.05;0.93;;;17.40;46.20;19.40;94440.00;;;;10430882;28;45211;-60
2022/05/09 23:21:43;;;;;;;1.65;1.17;;;17.40;46.30;19.40;94444.00;;;;10434634;28;45276;-60
2022/05/09 23:27:04;;;;;;;1.23;1.10;;;17.40;46.20;19.40;94433.00;;;;10435885;28;45197;-60
2022/05/09 23:32:25;;;;;;;1.10;1.00;;;17.40;46.20;19.40;94447.00;;;;10441943;28;45256;-60
2022/05/09 23:37:46;;;;;;;1.30;1.10;;;17.40;46.20;19.40;94449.00;;;;10441899;28;45212;-61
2022/05/09 23:43:07;;;;;;;1.35;1.20;;;17.30;46.20;19.40;94447.00;;;;10442339;28;45797;-60
2022/05/09 23:48:28;;;;;;;1.10;1.00;;;17.30;46.20;19.40;94455.00;;;;10441569;28;45297;-60
2022/05/09 23:53:50;;;;;;;1.40;1.10;;;17.30;46.20;19.40;94443.00;;;;10442498;28;45147;-60
2022/05/09 23:59:10;;;;;;;1.20;1.10;;;17.30;46.20;19.40;94450.00;;;;10482312;28;45244;-61
